Terminal Aerodrome Forecast
Issued by NWS Charleston, WV

Current Version | Previous Version | Graphics & Text | Print | Product List | Glossary On
Versions: 1 2 3 4 5 6 7 8 9 10 11 12 13 14 15 16 17 18 19 20 21 22 23 24 25 26 27 28
000
FTUS41 KRLX 172105 AAA
TAFEKN
TAF AMD
KEKN 172105Z 1721/1818 25007G14KT P6SM BKN025
     FM180100 24006KT P6SM BKN035
     FM180600 24005KT P6SM SCT035
     FM181300 24005KT P6SM FEW035=

USA.gov is the U.S. government's official web portal to all federal, state and local government web resources and services.